createdAt,value
2018-12-16T00:00:50.516Z,7.58
2018-12-16T00:15:50.548Z,8.58
2018-12-16T00:30:53.705Z,28.07
2018-12-16T00:45:50.325Z,15.95
2018-12-16T01:00:50.837Z,14.65
2018-12-16T01:15:50.704Z,13.38
2018-12-16T01:30:51.106Z,13.72
2018-12-16T01:45:51.072Z,15.83
2018-12-16T02:00:50.987Z,21.20
2018-12-16T02:15:56.245Z,16.12
2018-12-16T02:30:50.738Z,11.93
2018-12-16T02:45:51.213Z,11.88
2018-12-16T03:00:51.141Z,13.03
2018-12-16T03:15:51.244Z,16.95
2018-12-16T03:30:52.493Z,18.80
2018-12-16T03:45:51.405Z,21.02
2018-12-16T04:00:51.750Z,18.37
2018-12-16T04:15:51.186Z,20.12
2018-12-16T04:30:50.104Z,19.23
2018-12-16T04:45:50.525Z,26.30
2018-12-16T05:00:52.391Z,24.40
2018-12-16T05:15:52.295Z,28.83
2018-12-16T05:30:50.815Z,25.80
2018-12-16T05:45:51.670Z,20.88
2018-12-16T06:00:53.640Z,18.05
2018-12-16T06:15:51.566Z,13.95
2018-12-16T06:30:50.933Z,17.65
2018-12-16T06:45:53.383Z,10.82
2018-12-16T07:00:50.961Z,6.20
2018-12-16T07:15:52.619Z,3.60
2018-12-16T07:30:53.111Z,4.42
2018-12-16T07:45:51.079Z,4.47
2018-12-16T08:00:50.944Z,5.05
2018-12-16T08:15:50.768Z,4.35
2018-12-16T08:30:53.346Z,5.17
2018-12-16T08:45:51.451Z,7.50
2018-12-16T09:00:51.683Z,6.20
2018-12-16T09:15:58.992Z,6.17
2018-12-16T09:30:57.953Z,5.87
2018-12-16T09:45:51.431Z,6.87
2018-12-16T10:00:51.401Z,8.23
2018-12-16T10:15:51.318Z,8.10
2018-12-16T10:30:50.711Z,12.53
2018-12-16T10:45:50.708Z,9.38
2018-12-16T11:00:56.907Z,6.92
2018-12-16T11:15:51.012Z,11.60
2018-12-16T11:30:51.560Z,8.83
2018-12-16T11:45:50.875Z,13.05
2018-12-16T12:00:51.297Z,10.13
2018-12-16T12:15:52.685Z,13.18
2018-12-16T12:30:51.184Z,11.33
2018-12-16T12:45:51.070Z,9.70
2018-12-16T13:00:50.968Z,8.53
2018-12-16T13:15:50.947Z,10.03
2018-12-16T13:30:51.847Z,12.30
2018-12-16T13:45:52.376Z,10.15
2018-12-16T14:00:57.768Z,9.95
2018-12-16T14:15:52.465Z,12.63
2018-12-16T14:30:51.486Z,12.10
2018-12-16T14:45:51.445Z,12.63
2018-12-16T15:00:50.928Z,12.05
2018-12-16T15:15:51.402Z,15.45
2018-12-16T15:30:50.922Z,15.75
2018-12-16T15:45:57.446Z,13.68
2018-12-16T16:00:53.941Z,14.60
2018-12-16T16:15:52.465Z,16.02
2018-12-16T16:30:51.117Z,24.85
2018-12-16T16:45:51.068Z,27.52
2018-12-16T17:00:53.005Z,25.37
2018-12-16T17:15:50.903Z,26.55
2018-12-16T17:30:53.849Z,25.82
2018-12-16T17:45:51.877Z,29.60
2018-12-16T18:00:53.252Z,28.70
2018-12-16T18:15:51.191Z,19.40
2018-12-16T18:30:53.644Z,22.98
2018-12-16T18:45:51.590Z,22.20
2018-12-16T19:00:51.476Z,20.62
2018-12-16T19:15:52.350Z,21.20
2018-12-16T19:30:53.524Z,22.58
2018-12-16T19:45:52.793Z,22.10
2018-12-16T20:00:51.683Z,25.97
2018-12-16T20:15:52.629Z,21.00
2018-12-16T20:30:50.980Z,19.60
2018-12-16T20:45:50.950Z,21.20
2018-12-16T21:00:58.535Z,22.75
2018-12-16T21:30:53.178Z,27.82
2018-12-16T21:45:51.226Z,20.97
2018-12-16T22:00:51.124Z,24.10
2018-12-16T22:15:50.987Z,19.98
2018-12-16T22:30:51.426Z,18.62
2018-12-16T22:45:51.329Z,14.60
2018-12-16T23:00:56.381Z,16.93
2018-12-16T23:15:53.260Z,16.23
2018-12-16T23:30:51.633Z,16.32
2018-12-16T23:45:51.635Z,14.50
